sensor_id;sensor_type;location;lat;lon;timestamp;temperature;humidity
35962;DHT22;22044;48.298;10.008;2023-05-21T00:02:34;14.80;99.90
35962;DHT22;22044;48.298;10.008;2023-05-21T00:05:19;14.70;99.90
35962;DHT22;22044;48.298;10.008;2023-05-21T00:08:05;14.60;99.90
35962;DHT22;22044;48.298;10.008;2023-05-21T00:10:52;14.50;99.90
35962;DHT22;22044;48.298;10.008;2023-05-21T00:13:37;14.40;99.90
35962;DHT22;22044;48.298;10.008;2023-05-21T00:16:23;14.30;99.90
35962;DHT22;22044;48.298;10.008;2023-05-21T00:19:09;14.30;99.90
35962;DHT22;22044;48.298;10.008;2023-05-21T00:21:55;14.20;99.90
35962;DHT22;22044;48.298;10.008;2023-05-21T00:24:40;14.10;99.90
35962;DHT22;22044;48.298;10.008;2023-05-21T00:27:29;14.10;99.90
35962;DHT22;22044;48.298;10.008;2023-05-21T00:30:14;14.10;99.90
35962;DHT22;22044;48.298;10.008;2023-05-21T00:33:00;14.10;99.90
35962;DHT22;22044;48.298;10.008;2023-05-21T00:35:48;14.00;99.90
35962;DHT22;22044;48.298;10.008;2023-05-21T00:38:33;14.00;99.90
35962;DHT22;22044;48.298;10.008;2023-05-21T00:41:21;14.10;99.90
35962;DHT22;22044;48.298;10.008;2023-05-21T00:44:09;14.10;99.90
35962;DHT22;22044;48.298;10.008;2023-05-21T00:46:57;14.10;99.90
35962;DHT22;22044;48.298;10.008;2023-05-21T00:49:42;14.10;99.90
35962;DHT22;22044;48.298;10.008;2023-05-21T00:52:28;14.00;99.90
35962;DHT22;22044;48.298;10.008;2023-05-21T00:55:14;14.00;99.90
35962;DHT22;22044;48.298;10.008;2023-05-21T00:57:59;14.00;99.90
35962;DHT22;22044;48.298;10.008;2023-05-21T01:00:46;14.00;99.90
35962;DHT22;22044;48.298;10.008;2023-05-21T01:03:34;13.90;99.90
35962;DHT22;22044;48.298;10.008;2023-05-21T01:06:21;13.90;99.90
35962;DHT22;22044;48.298;10.008;2023-05-21T01:09:07;13.90;99.90
35962;DHT22;22044;48.298;10.008;2023-05-21T01:11:54;13.80;99.90
35962;DHT22;22044;48.298;10.008;2023-05-21T01:14:40;13.80;99.90
35962;DHT22;22044;48.298;10.008;2023-05-21T01:17:29;13.80;99.90
35962;DHT22;22044;48.298;10.008;2023-05-21T01:20:15;13.80;99.90
35962;DHT22;22044;48.298;10.008;2023-05-21T01:23:04;13.70;99.90
35962;DHT22;22044;48.298;10.008;2023-05-21T01:25:50;13.70;99.90
35962;DHT22;22044;48.298;10.008;2023-05-21T01:28:35;13.70;99.90
35962;DHT22;22044;48.298;10.008;2023-05-21T01:31:25;13.60;99.90
35962;DHT22;22044;48.298;10.008;2023-05-21T01:34:12;13.60;99.90
35962;DHT22;22044;48.298;10.008;2023-05-21T01:37:09;13.60;99.90
35962;DHT22;22044;48.298;10.008;2023-05-21T01:40:02;13.60;99.90
35962;DHT22;22044;48.298;10.008;2023-05-21T01:42:50;13.60;99.90
35962;DHT22;22044;48.298;10.008;2023-05-21T01:45:38;13.60;99.90
35962;DHT22;22044;48.298;10.008;2023-05-21T01:48:25;13.60;99.90
35962;DHT22;22044;48.298;10.008;2023-05-21T01:51:12;13.50;99.90
35962;DHT22;22044;48.298;10.008;2023-05-21T01:53:58;13.50;99.90
35962;DHT22;22044;48.298;10.008;2023-05-21T01:56:45;13.50;99.90
35962;DHT22;22044;48.298;10.008;2023-05-21T01:59:33;13.50;99.90
35962;DHT22;22044;48.298;10.008;2023-05-21T02:02:19;13.40;99.90
35962;DHT22;22044;48.298;10.008;2023-05-21T02:05:06;13.30;99.90
35962;DHT22;22044;48.298;10.008;2023-05-21T02:07:52;13.30;99.90
35962;DHT22;22044;48.298;10.008;2023-05-21T02:10:38;13.30;99.90
35962;DHT22;22044;48.298;10.008;2023-05-21T02:13:25;13.40;99.90
35962;DHT22;22044;48.298;10.008;2023-05-21T02:16:12;13.40;99.90
35962;DHT22;22044;48.298;10.008;2023-05-21T02:18:59;13.40;99.90
35962;DHT22;22044;48.298;10.008;2023-05-21T02:21:44;13.40;99.90
35962;DHT22;22044;48.298;10.008;2023-05-21T02:24:30;13.30;99.90
35962;DHT22;22044;48.298;10.008;2023-05-21T02:27:16;13.10;99.90
35962;DHT22;22044;48.298;10.008;2023-05-21T02:30:05;13.10;99.90
35962;DHT22;22044;48.298;10.008;2023-05-21T02:32:52;13.10;99.90
35962;DHT22;22044;48.298;10.008;2023-05-21T02:35:38;13.20;99.90
35962;DHT22;22044;48.298;10.008;2023-05-21T02:38:24;13.20;99.90
35962;DHT22;22044;48.298;10.008;2023-05-21T02:41:10;13.30;99.90
35962;DHT22;22044;48.298;10.008;2023-05-21T02:43:55;13.30;99.90
35962;DHT22;22044;48.298;10.008;2023-05-21T02:46:43;13.30;99.90
35962;DHT22;22044;48.298;10.008;2023-05-21T02:49:29;13.40;99.90
35962;DHT22;22044;48.298;10.008;2023-05-21T02:52:15;13.30;99.90
35962;DHT22;22044;48.298;10.008;2023-05-21T02:55:02;13.30;99.90
35962;DHT22;22044;48.298;10.008;2023-05-21T02:57:47;13.30;99.90
35962;DHT22;22044;48.298;10.008;2023-05-21T03:00:33;13.30;99.90
35962;DHT22;22044;48.298;10.008;2023-05-21T03:03:20;13.30;99.90
35962;DHT22;22044;48.298;10.008;2023-05-21T03:06:06;13.30;99.90
35962;DHT22;22044;48.298;10.008;2023-05-21T03:08:53;13.20;99.90
35962;DHT22;22044;48.298;10.008;2023-05-21T03:11:38;13.10;99.90
35962;DHT22;22044;48.298;10.008;2023-05-21T03:14:24;13.10;99.90
35962;DHT22;22044;48.298;10.008;2023-05-21T03:17:12;13.10;99.90
35962;DHT22;22044;48.298;10.008;2023-05-21T03:19:59;13.20;99.90
35962;DHT22;22044;48.298;10.008;2023-05-21T03:22:45;13.20;99.90
35962;DHT22;22044;48.298;10.008;2023-05-21T03:25:31;13.10;99.90
35962;DHT22;22044;48.298;10.008;2023-05-21T03:28:17;13.10;99.90
35962;DHT22;22044;48.298;10.008;2023-05-21T03:31:06;13.10;99.90
35962;DHT22;22044;48.298;10.008;2023-05-21T03:33:52;13.10;99.90
35962;DHT22;22044;48.298;10.008;2023-05-21T03:36:46;13.10;99.90
35962;DHT22;22044;48.298;10.008;2023-05-21T03:39:33;13.10;99.90
35962;DHT22;22044;48.298;10.008;2023-05-21T03:42:19;12.90;99.90
35962;DHT22;22044;48.298;10.008;2023-05-21T03:45:09;12.80;99.90
35962;DHT22;22044;48.298;10.008;2023-05-21T03:48:04;12.80;99.90
35962;DHT22;22044;48.298;10.008;2023-05-21T03:50:50;12.90;99.90
35962;DHT22;22044;48.298;10.008;2023-05-21T03:53:37;12.90;99.90
35962;DHT22;22044;48.298;10.008;2023-05-21T03:56:23;12.90;99.90
35962;DHT22;22044;48.298;10.008;2023-05-21T03:59:10;13.00;99.90
35962;DHT22;22044;48.298;10.008;2023-05-21T04:01:55;12.80;99.90
35962;DHT22;22044;48.298;10.008;2023-05-21T04:04:41;12.80;99.90
35962;DHT22;22044;48.298;10.008;2023-05-21T04:07:27;12.90;99.90
35962;DHT22;22044;48.298;10.008;2023-05-21T04:10:14;12.80;99.90
35962;DHT22;22044;48.298;10.008;2023-05-21T04:12:59;12.70;99.90
35962;DHT22;22044;48.298;10.008;2023-05-21T04:15:45;12.60;99.90
35962;DHT22;22044;48.298;10.008;2023-05-21T04:18:31;12.60;99.90
35962;DHT22;22044;48.298;10.008;2023-05-21T04:21:17;12.60;99.90
35962;DHT22;22044;48.298;10.008;2023-05-21T04:24:03;12.70;99.90
35962;DHT22;22044;48.298;10.008;2023-05-21T04:27:05;12.80;99.90
35962;DHT22;22044;48.298;10.008;2023-05-21T04:29:53;12.80;99.90
35962;DHT22;22044;48.298;10.008;2023-05-21T04:32:41;12.90;99.90
35962;DHT22;22044;48.298;10.008;2023-05-21T04:35:29;12.90;99.90
35962;DHT22;22044;48.298;10.008;2023-05-21T04:38:14;13.00;99.90
35962;DHT22;22044;48.298;10.008;2023-05-21T04:41:02;13.00;99.90
35962;DHT22;22044;48.298;10.008;2023-05-21T04:43:49;13.00;99.90
35962;DHT22;22044;48.298;10.008;2023-05-21T04:46:39;13.00;99.90
35962;DHT22;22044;48.298;10.008;2023-05-21T04:49:25;13.00;99.90
35962;DHT22;22044;48.298;10.008;2023-05-21T04:52:11;13.00;99.90
35962;DHT22;22044;48.298;10.008;2023-05-21T04:54:56;13.10;99.90
35962;DHT22;22044;48.298;10.008;2023-05-21T04:57:42;13.20;99.90
35962;DHT22;22044;48.298;10.008;2023-05-21T05:00:29;13.10;99.90
35962;DHT22;22044;48.298;10.008;2023-05-21T05:03:15;13.10;99.90
35962;DHT22;22044;48.298;10.008;2023-05-21T05:06:01;13.00;99.90
35962;DHT22;22044;48.298;10.008;2023-05-21T05:08:48;13.00;99.90
35962;DHT22;22044;48.298;10.008;2023-05-21T05:11:34;13.00;99.90
35962;DHT22;22044;48.298;10.008;2023-05-21T05:14:20;13.00;99.90
35962;DHT22;22044;48.298;10.008;2023-05-21T05:17:07;13.10;99.90
35962;DHT22;22044;48.298;10.008;2023-05-21T05:19:53;13.10;99.90
35962;DHT22;22044;48.298;10.008;2023-05-21T05:22:39;13.20;99.90
35962;DHT22;22044;48.298;10.008;2023-05-21T05:25:25;13.20;99.90
35962;DHT22;22044;48.298;10.008;2023-05-21T05:28:11;13.20;99.90
35962;DHT22;22044;48.298;10.008;2023-05-21T05:30:57;13.30;99.90
35962;DHT22;22044;48.298;10.008;2023-05-21T05:33:45;13.40;99.90
35962;DHT22;22044;48.298;10.008;2023-05-21T05:36:31;13.40;99.90
35962;DHT22;22044;48.298;10.008;2023-05-21T05:39:16;13.50;99.90
35962;DHT22;22044;48.298;10.008;2023-05-21T05:42:04;13.50;99.90
35962;DHT22;22044;48.298;10.008;2023-05-21T05:44:50;13.60;99.90
35962;DHT22;22044;48.298;10.008;2023-05-21T05:47:35;13.60;99.90
35962;DHT22;22044;48.298;10.008;2023-05-21T05:50:22;13.50;99.90
35962;DHT22;22044;48.298;10.008;2023-05-21T05:53:08;13.70;99.90
35962;DHT22;22044;48.298;10.008;2023-05-21T05:55:56;13.80;99.90
35962;DHT22;22044;48.298;10.008;2023-05-21T05:58:43;13.80;99.90
35962;DHT22;22044;48.298;10.008;2023-05-21T06:01:30;13.80;99.90
35962;DHT22;22044;48.298;10.008;2023-05-21T06:04:16;13.90;99.90
35962;DHT22;22044;48.298;10.008;2023-05-21T06:07:03;13.90;99.90
35962;DHT22;22044;48.298;10.008;2023-05-21T06:09:49;13.90;99.90
35962;DHT22;22044;48.298;10.008;2023-05-21T06:12:34;14.00;99.90
35962;DHT22;22044;48.298;10.008;2023-05-21T06:15:20;14.10;99.90
35962;DHT22;22044;48.298;10.008;2023-05-21T06:18:06;14.10;99.90
35962;DHT22;22044;48.298;10.008;2023-05-21T06:20:52;14.10;99.90
35962;DHT22;22044;48.298;10.008;2023-05-21T06:23:40;14.10;99.90
35962;DHT22;22044;48.298;10.008;2023-05-21T06:26:27;14.20;99.90
35962;DHT22;22044;48.298;10.008;2023-05-21T06:29:14;14.20;99.90
35962;DHT22;22044;48.298;10.008;2023-05-21T06:32:00;14.30;99.90
35962;DHT22;22044;48.298;10.008;2023-05-21T06:34:46;14.40;99.90
35962;DHT22;22044;48.298;10.008;2023-05-21T06:37:31;14.50;99.90
35962;DHT22;22044;48.298;10.008;2023-05-21T06:40:18;14.40;99.90
35962;DHT22;22044;48.298;10.008;2023-05-21T06:43:04;14.30;99.90
35962;DHT22;22044;48.298;10.008;2023-05-21T06:46:22;14.20;99.90
35962;DHT22;22044;48.298;10.008;2023-05-21T06:49:10;14.30;99.90
35962;DHT22;22044;48.298;10.008;2023-05-21T06:51:57;14.30;99.90
35962;DHT22;22044;48.298;10.008;2023-05-21T06:54:42;14.30;99.90
35962;DHT22;22044;48.298;10.008;2023-05-21T06:57:30;14.50;99.90
35962;DHT22;22044;48.298;10.008;2023-05-21T07:00:16;14.40;99.90
35962;DHT22;22044;48.298;10.008;2023-05-21T07:03:02;14.40;99.90
35962;DHT22;22044;48.298;10.008;2023-05-21T07:05:48;14.60;99.90
35962;DHT22;22044;48.298;10.008;2023-05-21T07:08:34;14.60;99.90
35962;DHT22;22044;48.298;10.008;2023-05-21T07:11:19;14.70;99.90
35962;DHT22;22044;48.298;10.008;2023-05-21T07:14:08;14.70;99.90
35962;DHT22;22044;48.298;10.008;2023-05-21T07:16:54;14.70;99.90
35962;DHT22;22044;48.298;10.008;2023-05-21T07:19:40;14.70;99.90
35962;DHT22;22044;48.298;10.008;2023-05-21T07:22:26;14.80;99.90
35962;DHT22;22044;48.298;10.008;2023-05-21T07:25:11;14.90;99.90
35962;DHT22;22044;48.298;10.008;2023-05-21T07:27:57;14.90;99.90
35962;DHT22;22044;48.298;10.008;2023-05-21T07:30:44;14.90;99.90
35962;DHT22;22044;48.298;10.008;2023-05-21T07:33:34;15.00;99.90
35962;DHT22;22044;48.298;10.008;2023-05-21T07:36:19;15.10;99.90
35962;DHT22;22044;48.298;10.008;2023-05-21T07:39:05;15.20;99.90
35962;DHT22;22044;48.298;10.008;2023-05-21T07:41:51;15.20;99.90
35962;DHT22;22044;48.298;10.008;2023-05-21T07:44:37;15.30;99.90
35962;DHT22;22044;48.298;10.008;2023-05-21T07:47:26;15.20;99.90
35962;DHT22;22044;48.298;10.008;2023-05-21T07:50:12;15.20;99.90
35962;DHT22;22044;48.298;10.008;2023-05-21T07:52:59;15.40;99.90
35962;DHT22;22044;48.298;10.008;2023-05-21T07:55:45;15.50;99.90
35962;DHT22;22044;48.298;10.008;2023-05-21T07:58:34;15.60;99.90
35962;DHT22;22044;48.298;10.008;2023-05-21T08:01:20;15.50;99.90
35962;DHT22;22044;48.298;10.008;2023-05-21T08:04:08;15.40;99.90
35962;DHT22;22044;48.298;10.008;2023-05-21T08:06:54;15.50;99.90
35962;DHT22;22044;48.298;10.008;2023-05-21T08:09:40;15.50;99.90
35962;DHT22;22044;48.298;10.008;2023-05-21T08:12:27;15.60;99.90
35962;DHT22;22044;48.298;10.008;2023-05-21T08:15:14;15.70;99.90
35962;DHT22;22044;48.298;10.008;2023-05-21T08:18:03;15.70;99.90
35962;DHT22;22044;48.298;10.008;2023-05-21T08:20:51;15.80;99.90
35962;DHT22;22044;48.298;10.008;2023-05-21T08:23:38;15.80;99.90
35962;DHT22;22044;48.298;10.008;2023-05-21T08:26:24;15.90;99.90
35962;DHT22;22044;48.298;10.008;2023-05-21T08:29:09;16.00;99.90
35962;DHT22;22044;48.298;10.008;2023-05-21T08:31:55;15.90;99.90
35962;DHT22;22044;48.298;10.008;2023-05-21T08:34:41;15.90;99.90
35962;DHT22;22044;48.298;10.008;2023-05-21T08:37:41;16.20;99.90
35962;DHT22;22044;48.298;10.008;2023-05-21T08:40:35;16.30;99.90
35962;DHT22;22044;48.298;10.008;2023-05-21T08:43:21;16.30;99.90
35962;DHT22;22044;48.298;10.008;2023-05-21T08:46:08;16.30;99.90
35962;DHT22;22044;48.298;10.008;2023-05-21T08:48:58;16.30;99.90
35962;DHT22;22044;48.298;10.008;2023-05-21T08:51:46;16.30;99.90
35962;DHT22;22044;48.298;10.008;2023-05-21T08:54:35;16.30;99.90
35962;DHT22;22044;48.298;10.008;2023-05-21T08:57:24;16.50;99.90
35962;DHT22;22044;48.298;10.008;2023-05-21T09:00:14;16.50;99.90
35962;DHT22;22044;48.298;10.008;2023-05-21T09:03:01;16.60;99.90
35962;DHT22;22044;48.298;10.008;2023-05-21T09:05:51;16.70;99.90
35962;DHT22;22044;48.298;10.008;2023-05-21T09:08:44;16.70;99.90
35962;DHT22;22044;48.298;10.008;2023-05-21T09:11:40;16.60;99.90
35962;DHT22;22044;48.298;10.008;2023-05-21T09:14:27;16.80;99.90
35962;DHT22;22044;48.298;10.008;2023-05-21T09:17:19;17.00;99.90
35962;DHT22;22044;48.298;10.008;2023-05-21T09:20:15;17.10;99.90
35962;DHT22;22044;48.298;10.008;2023-05-21T09:23:09;17.20;99.90
35962;DHT22;22044;48.298;10.008;2023-05-21T09:26:00;17.20;99.90
35962;DHT22;22044;48.298;10.008;2023-05-21T09:28:58;17.30;99.90
35962;DHT22;22044;48.298;10.008;2023-05-21T09:31:44;17.20;99.90
35962;DHT22;22044;48.298;10.008;2023-05-21T09:34:34;17.30;99.90
35962;DHT22;22044;48.298;10.008;2023-05-21T09:37:20;17.50;99.90
35962;DHT22;22044;48.298;10.008;2023-05-21T09:40:11;17.60;99.90
35962;DHT22;22044;48.298;10.008;2023-05-21T09:42:58;17.60;99.90
35962;DHT22;22044;48.298;10.008;2023-05-21T09:45:51;17.70;99.90
35962;DHT22;22044;48.298;10.008;2023-05-21T09:48:39;17.80;99.90
35962;DHT22;22044;48.298;10.008;2023-05-21T09:51:28;17.80;99.90
35962;DHT22;22044;48.298;10.008;2023-05-21T09:54:15;17.90;99.90
35962;DHT22;22044;48.298;10.008;2023-05-21T09:57:01;18.10;99.90
35962;DHT22;22044;48.298;10.008;2023-05-21T09:59:49;18.00;99.90
35962;DHT22;22044;48.298;10.008;2023-05-21T10:02:36;18.10;99.90
35962;DHT22;22044;48.298;10.008;2023-05-21T10:05:28;18.20;99.90
35962;DHT22;22044;48.298;10.008;2023-05-21T10:08:15;18.30;99.90
35962;DHT22;22044;48.298;10.008;2023-05-21T10:11:04;18.30;99.90
35962;DHT22;22044;48.298;10.008;2023-05-21T10:13:54;18.50;99.90
35962;DHT22;22044;48.298;10.008;2023-05-21T10:16:42;18.60;99.90
35962;DHT22;22044;48.298;10.008;2023-05-21T10:19:30;18.70;99.90
35962;DHT22;22044;48.298;10.008;2023-05-21T10:22:17;18.80;99.90
35962;DHT22;22044;48.298;10.008;2023-05-21T10:25:03;18.90;99.90
35962;DHT22;22044;48.298;10.008;2023-05-21T10:27:50;19.00;99.90
35962;DHT22;22044;48.298;10.008;2023-05-21T10:30:37;19.00;99.90
35962;DHT22;22044;48.298;10.008;2023-05-21T10:33:24;18.90;99.90
35962;DHT22;22044;48.298;10.008;2023-05-21T10:36:15;19.00;99.90
35962;DHT22;22044;48.298;10.008;2023-05-21T10:39:01;19.20;99.90
35962;DHT22;22044;48.298;10.008;2023-05-21T10:41:56;19.20;99.90
35962;DHT22;22044;48.298;10.008;2023-05-21T10:44:59;19.20;99.90
35962;DHT22;22044;48.298;10.008;2023-05-21T10:48:01;19.30;99.90
35962;DHT22;22044;48.298;10.008;2023-05-21T10:51:09;19.40;99.90
35962;DHT22;22044;48.298;10.008;2023-05-21T10:57:07;19.30;99.90
35962;DHT22;22044;48.298;10.008;2023-05-21T10:59:56;19.40;99.90
35962;DHT22;22044;48.298;10.008;2023-05-21T11:02:42;19.60;99.90
35962;DHT22;22044;48.298;10.008;2023-05-21T11:05:38;19.60;99.90
35962;DHT22;22044;48.298;10.008;2023-05-21T11:08:26;19.90;99.90
35962;DHT22;22044;48.298;10.008;2023-05-21T11:11:41;20.00;99.90
35962;DHT22;22044;48.298;10.008;2023-05-21T11:14:32;20.20;99.90
35962;DHT22;22044;48.298;10.008;2023-05-21T11:17:36;20.30;99.90
35962;DHT22;22044;48.298;10.008;2023-05-21T11:20:22;20.20;99.90
35962;DHT22;22044;48.298;10.008;2023-05-21T11:23:19;20.20;99.90
35962;DHT22;22044;48.298;10.008;2023-05-21T11:26:06;20.20;99.90
35962;DHT22;22044;48.298;10.008;2023-05-21T11:29:05;20.30;99.90
35962;DHT22;22044;48.298;10.008;2023-05-21T11:31:59;20.60;99.90
35962;DHT22;22044;48.298;10.008;2023-05-21T11:34:46;20.70;99.90
35962;DHT22;22044;48.298;10.008;2023-05-21T11:37:32;20.70;99.90
35962;DHT22;22044;48.298;10.008;2023-05-21T11:40:21;20.80;99.90
35962;DHT22;22044;48.298;10.008;2023-05-21T11:43:09;21.00;99.90
35962;DHT22;22044;48.298;10.008;2023-05-21T11:45:54;20.90;99.90
35962;DHT22;22044;48.298;10.008;2023-05-21T11:48:43;21.20;99.90
35962;DHT22;22044;48.298;10.008;2023-05-21T11:51:29;21.30;99.90
35962;DHT22;22044;48.298;10.008;2023-05-21T11:54:14;21.50;99.90
35962;DHT22;22044;48.298;10.008;2023-05-21T11:57:01;21.70;99.90
35962;DHT22;22044;48.298;10.008;2023-05-21T11:59:48;21.80;99.90
35962;DHT22;22044;48.298;10.008;2023-05-21T12:02:36;21.80;99.90
35962;DHT22;22044;48.298;10.008;2023-05-21T12:05:24;21.70;99.90
35962;DHT22;22044;48.298;10.008;2023-05-21T12:08:10;21.90;99.90
35962;DHT22;22044;48.298;10.008;2023-05-21T12:10:57;21.80;99.90
35962;DHT22;22044;48.298;10.008;2023-05-21T12:13:43;22.10;99.90
35962;DHT22;22044;48.298;10.008;2023-05-21T12:16:29;22.30;99.90
35962;DHT22;22044;48.298;10.008;2023-05-21T12:19:16;22.60;99.90
35962;DHT22;22044;48.298;10.008;2023-05-21T12:22:05;22.80;99.90
35962;DHT22;22044;48.298;10.008;2023-05-21T12:24:51;23.10;99.90
35962;DHT22;22044;48.298;10.008;2023-05-21T12:27:38;23.20;99.90
35962;DHT22;22044;48.298;10.008;2023-05-21T12:30:25;23.30;99.90
35962;DHT22;22044;48.298;10.008;2023-05-21T12:33:11;23.50;99.90
35962;DHT22;22044;48.298;10.008;2023-05-21T12:35:57;23.50;99.90
35962;DHT22;22044;48.298;10.008;2023-05-21T12:38:45;23.70;99.90
35962;DHT22;22044;48.298;10.008;2023-05-21T12:41:30;23.80;99.90
35962;DHT22;22044;48.298;10.008;2023-05-21T12:44:16;24.00;99.90
35962;DHT22;22044;48.298;10.008;2023-05-21T12:47:02;23.70;99.90
35962;DHT22;22044;48.298;10.008;2023-05-21T12:49:49;23.30;99.90
35962;DHT22;22044;48.298;10.008;2023-05-21T12:52:39;23.10;99.90
35962;DHT22;22044;48.298;10.008;2023-05-21T12:55:27;23.30;99.90
35962;DHT22;22044;48.298;10.008;2023-05-21T12:58:13;23.40;99.90
35962;DHT22;22044;48.298;10.008;2023-05-21T13:01:00;23.70;99.90
35962;DHT22;22044;48.298;10.008;2023-05-21T13:03:45;24.00;99.90
35962;DHT22;22044;48.298;10.008;2023-05-21T13:06:41;24.20;99.90
35962;DHT22;22044;48.298;10.008;2023-05-21T13:09:26;24.40;99.90
35962;DHT22;22044;48.298;10.008;2023-05-21T13:12:13;24.40;99.90
35962;DHT22;22044;48.298;10.008;2023-05-21T13:15:00;24.40;99.90
35962;DHT22;22044;48.298;10.008;2023-05-21T13:17:46;24.30;99.90
35962;DHT22;22044;48.298;10.008;2023-05-21T13:20:31;24.60;99.90
35962;DHT22;22044;48.298;10.008;2023-05-21T13:23:17;24.70;99.90
35962;DHT22;22044;48.298;10.008;2023-05-21T13:26:02;24.80;99.90
35962;DHT22;22044;48.298;10.008;2023-05-21T13:28:49;25.10;99.90
35962;DHT22;22044;48.298;10.008;2023-05-21T13:31:35;25.00;99.90
35962;DHT22;22044;48.298;10.008;2023-05-21T13:34:21;25.20;99.90
35962;DHT22;22044;48.298;10.008;2023-05-21T13:37:07;25.50;99.90
35962;DHT22;22044;48.298;10.008;2023-05-21T13:39:52;25.50;99.90
35962;DHT22;22044;48.298;10.008;2023-05-21T13:42:38;25.40;99.00
35962;DHT22;22044;48.298;10.008;2023-05-21T13:45:25;25.40;98.00
35962;DHT22;22044;48.298;10.008;2023-05-21T13:48:12;25.50;96.00
35962;DHT22;22044;48.298;10.008;2023-05-21T13:50:58;25.70;99.00
35962;DHT22;22044;48.298;10.008;2023-05-21T13:53:44;25.80;98.80
35962;DHT22;22044;48.298;10.008;2023-05-21T13:56:29;25.70;96.10
35962;DHT22;22044;48.298;10.008;2023-05-21T13:59:16;25.40;93.90
35962;DHT22;22044;48.298;10.008;2023-05-21T14:02:03;25.20;94.80
35962;DHT22;22044;48.298;10.008;2023-05-21T14:04:49;25.40;97.60
35962;DHT22;22044;48.298;10.008;2023-05-21T14:07:34;25.70;95.00
35962;DHT22;22044;48.298;10.008;2023-05-21T14:10:20;25.50;95.40
35962;DHT22;22044;48.298;10.008;2023-05-21T14:13:06;25.40;94.90
35962;DHT22;22044;48.298;10.008;2023-05-21T14:15:51;25.60;95.60
35962;DHT22;22044;48.298;10.008;2023-05-21T14:18:38;25.80;97.10
35962;DHT22;22044;48.298;10.008;2023-05-21T14:21:24;26.00;93.80
35962;DHT22;22044;48.298;10.008;2023-05-21T14:24:10;26.20;93.90
35962;DHT22;22044;48.298;10.008;2023-05-21T14:26:55;26.40;91.70
35962;DHT22;22044;48.298;10.008;2023-05-21T14:29:41;26.20;88.70
35962;DHT22;22044;48.298;10.008;2023-05-21T14:32:27;25.80;87.70
35962;DHT22;22044;48.298;10.008;2023-05-21T14:35:14;25.70;91.40
35962;DHT22;22044;48.298;10.008;2023-05-21T14:38:00;25.70;90.70
35962;DHT22;22044;48.298;10.008;2023-05-21T14:40:45;25.60;91.70
35962;DHT22;22044;48.298;10.008;2023-05-21T14:43:31;25.70;90.90
35962;DHT22;22044;48.298;10.008;2023-05-21T14:46:17;26.10;92.30
35962;DHT22;22044;48.298;10.008;2023-05-21T14:49:02;26.00;90.80
35962;DHT22;22044;48.298;10.008;2023-05-21T14:51:49;26.00;88.50
35962;DHT22;22044;48.298;10.008;2023-05-21T14:54:35;26.30;91.50
35962;DHT22;22044;48.298;10.008;2023-05-21T14:57:21;26.50;92.00
35962;DHT22;22044;48.298;10.008;2023-05-21T15:00:07;26.60;91.30
35962;DHT22;22044;48.298;10.008;2023-05-21T15:02:53;26.70;90.70
35962;DHT22;22044;48.298;10.008;2023-05-21T15:05:39;26.80;91.70
35962;DHT22;22044;48.298;10.008;2023-05-21T15:08:26;26.80;85.80
35962;DHT22;22044;48.298;10.008;2023-05-21T15:11:11;26.90;87.70
35962;DHT22;22044;48.298;10.008;2023-05-21T15:13:57;27.10;89.00
35962;DHT22;22044;48.298;10.008;2023-05-21T15:16:43;27.10;90.70
35962;DHT22;22044;48.298;10.008;2023-05-21T15:19:28;27.20;86.30
35962;DHT22;22044;48.298;10.008;2023-05-21T15:22:14;26.70;85.80
35962;DHT22;22044;48.298;10.008;2023-05-21T15:25:02;26.20;83.70
35962;DHT22;22044;48.298;10.008;2023-05-21T15:27:48;25.90;81.80
35962;DHT22;22044;48.298;10.008;2023-05-21T15:30:34;25.90;83.00
35962;DHT22;22044;48.298;10.008;2023-05-21T15:33:19;25.70;80.70
35962;DHT22;22044;48.298;10.008;2023-05-21T15:36:06;25.90;81.00
35962;DHT22;22044;48.298;10.008;2023-05-21T15:38:52;26.00;81.60
35962;DHT22;22044;48.298;10.008;2023-05-21T15:41:39;26.20;80.40
35962;DHT22;22044;48.298;10.008;2023-05-21T15:44:24;26.00;87.20
35962;DHT22;22044;48.298;10.008;2023-05-21T15:47:10;26.30;86.80
35962;DHT22;22044;48.298;10.008;2023-05-21T15:49:56;25.90;84.60
35962;DHT22;22044;48.298;10.008;2023-05-21T15:52:42;25.50;79.00
35962;DHT22;22044;48.298;10.008;2023-05-21T15:55:30;25.40;79.40
35962;DHT22;22044;48.298;10.008;2023-05-21T15:58:17;25.30;82.60
35962;DHT22;22044;48.298;10.008;2023-05-21T16:01:02;25.20;77.80
35962;DHT22;22044;48.298;10.008;2023-05-21T16:03:48;25.40;79.70
35962;DHT22;22044;48.298;10.008;2023-05-21T16:06:34;25.40;78.90
35962;DHT22;22044;48.298;10.008;2023-05-21T16:09:20;25.30;80.30
35962;DHT22;22044;48.298;10.008;2023-05-21T16:12:05;25.40;84.20
35962;DHT22;22044;48.298;10.008;2023-05-21T16:14:53;25.70;83.30
35962;DHT22;22044;48.298;10.008;2023-05-21T16:17:38;25.90;82.90
35962;DHT22;22044;48.298;10.008;2023-05-21T16:20:24;26.00;82.80
35962;DHT22;22044;48.298;10.008;2023-05-21T16:23:10;26.00;85.40
35962;DHT22;22044;48.298;10.008;2023-05-21T16:25:55;25.60;79.80
35962;DHT22;22044;48.298;10.008;2023-05-21T16:28:41;25.40;80.90
35962;DHT22;22044;48.298;10.008;2023-05-21T16:31:28;25.20;83.30
35962;DHT22;22044;48.298;10.008;2023-05-21T16:34:14;25.20;84.70
35962;DHT22;22044;48.298;10.008;2023-05-21T16:36:59;25.30;86.80
35962;DHT22;22044;48.298;10.008;2023-05-21T16:39:45;24.90;84.00
35962;DHT22;22044;48.298;10.008;2023-05-21T16:42:31;24.80;88.70
35962;DHT22;22044;48.298;10.008;2023-05-21T16:45:16;24.70;88.70
35962;DHT22;22044;48.298;10.008;2023-05-21T16:48:06;24.50;90.40
35962;DHT22;22044;48.298;10.008;2023-05-21T16:50:52;24.50;90.70
35962;DHT22;22044;48.298;10.008;2023-05-21T16:53:38;24.30;90.00
35962;DHT22;22044;48.298;10.008;2023-05-21T16:56:23;24.10;91.20
35962;DHT22;22044;48.298;10.008;2023-05-21T16:59:10;24.10;91.40
35962;DHT22;22044;48.298;10.008;2023-05-21T17:01:56;24.00;91.90
35962;DHT22;22044;48.298;10.008;2023-05-21T17:04:42;23.90;93.10
35962;DHT22;22044;48.298;10.008;2023-05-21T17:07:28;23.70;94.00
35962;DHT22;22044;48.298;10.008;2023-05-21T17:10:14;23.60;94.70
35962;DHT22;22044;48.298;10.008;2023-05-21T17:13:00;23.50;95.10
35962;DHT22;22044;48.298;10.008;2023-05-21T17:15:46;23.40;94.90
35962;DHT22;22044;48.298;10.008;2023-05-21T17:18:32;23.30;95.50
35962;DHT22;22044;48.298;10.008;2023-05-21T17:21:19;23.30;96.00
35962;DHT22;22044;48.298;10.008;2023-05-21T17:24:05;23.20;96.50